createdAt,value
2016-08-16T00:00:56.041Z,0
2016-08-16T00:01:56.015Z,0
2016-08-16T00:02:56.020Z,0
2016-08-16T00:03:56.014Z,0
2016-08-16T00:04:56.005Z,0
2016-08-16T00:05:55.997Z,0
2016-08-16T00:06:55.984Z,0
2016-08-16T00:07:55.990Z,0
2016-08-16T00:08:55.987Z,0
2016-08-16T00:09:55.993Z,0
2016-08-16T00:10:55.979Z,0
2016-08-16T00:11:55.976Z,0
2016-08-16T00:12:55.964Z,0
2016-08-16T00:13:55.954Z,0
2016-08-16T00:14:56.653Z,0
2016-08-16T00:15:55.968Z,0
2016-08-16T00:16:55.942Z,0
2016-08-16T00:17:56.035Z,0
2016-08-16T00:20:00.037Z,0
2016-08-16T00:20:57.551Z,0
2016-08-16T00:21:56.655Z,0
2016-08-16T00:22:57.535Z,0
2016-08-16T00:23:57.262Z,0
2016-08-16T00:24:56.683Z,0
2016-08-16T00:25:55.893Z,0
2016-08-16T00:26:55.944Z,0
2016-08-16T00:27:57.851Z,0
2016-08-16T00:28:59.061Z,0
2016-08-16T00:29:58.620Z,0
2016-08-16T00:30:58.084Z,0
2016-08-16T00:31:57.207Z,0
2016-08-16T00:32:55.855Z,0
2016-08-16T00:33:55.847Z,0
2016-08-16T00:34:56.060Z,0
2016-08-16T00:35:55.838Z,0
2016-08-16T00:36:55.836Z,0
2016-08-16T00:37:55.832Z,0
2016-08-16T00:38:55.818Z,0
2016-08-16T00:39:55.820Z,0
2016-08-16T00:40:55.823Z,0
2016-08-16T00:41:55.802Z,0
2016-08-16T00:42:56.483Z,0
2016-08-16T00:43:55.791Z,0
2016-08-16T00:44:55.778Z,0
2016-08-16T00:45:55.783Z,0
2016-08-16T00:46:55.780Z,0
2016-08-16T00:47:55.770Z,0
2016-08-16T00:48:55.755Z,0
2016-08-16T00:49:55.758Z,0
2016-08-16T00:50:55.764Z,0
2016-08-16T00:51:55.739Z,0
2016-08-16T00:52:55.749Z,0
2016-08-16T00:53:55.762Z,0
2016-08-16T00:54:55.723Z,0
2016-08-16T00:55:55.716Z,0
2016-08-16T00:56:55.715Z,0
2016-08-16T00:58:12.780Z,0
2016-08-16T00:58:57.011Z,0
2016-08-16T01:00:10.676Z,0
2016-08-16T01:02:10.860Z,0
2016-08-16T01:02:55.679Z,0
2016-08-16T01:03:56.079Z,0
2016-08-16T01:04:55.670Z,0
2016-08-16T01:05:55.666Z,0
2016-08-16T01:07:11.377Z,0
2016-08-16T01:08:11.324Z,0
2016-08-16T01:08:56.909Z,0
2016-08-16T01:09:56.631Z,0
2016-08-16T01:11:55.626Z,0
2016-08-16T01:12:55.614Z,0
2016-08-16T01:13:55.843Z,0
2016-08-16T01:14:55.630Z,0
2016-08-16T01:15:55.615Z,0
2016-08-16T01:16:55.602Z,0
2016-08-16T01:17:55.587Z,0
2016-08-16T01:18:55.609Z,0
2016-08-16T01:19:55.586Z,0
2016-08-16T01:20:55.592Z,0
2016-08-16T01:21:55.571Z,0
2016-08-16T01:22:55.566Z,0
2016-08-16T01:23:55.552Z,0
2016-08-16T01:24:55.574Z,0
2016-08-16T01:25:55.562Z,0
2016-08-16T01:26:55.681Z,0
2016-08-16T01:27:55.544Z,0
2016-08-16T01:28:55.533Z,0
2016-08-16T01:29:55.529Z,0
2016-08-16T01:30:56.232Z,0
2016-08-16T01:31:55.513Z,0
2016-08-16T01:32:55.510Z,0
2016-08-16T01:33:55.511Z,0
2016-08-16T01:34:55.499Z,0
2016-08-16T01:35:55.699Z,0
2016-08-16T01:37:57.218Z,0
2016-08-16T01:38:58.647Z,0
2016-08-16T01:39:58.270Z,0
2016-08-16T01:40:56.773Z,0
2016-08-16T01:41:56.168Z,0
2016-08-16T01:42:55.449Z,0
2016-08-16T01:43:55.466Z,0
2016-08-16T01:44:55.438Z,0
2016-08-16T01:45:58.426Z,0
2016-08-16T01:47:57.405Z,0
2016-08-16T01:48:57.478Z,0
2016-08-16T01:49:56.367Z,0
2016-08-16T01:50:55.414Z,0
2016-08-16T01:51:55.402Z,0
2016-08-16T01:52:55.394Z,0
2016-08-16T01:53:55.392Z,0
2016-08-16T01:54:56.097Z,0
2016-08-16T01:55:55.385Z,0
2016-08-16T01:56:55.386Z,0
2016-08-16T01:57:55.365Z,0
2016-08-16T01:58:55.359Z,0
2016-08-16T01:59:55.358Z,0
2016-08-16T02:00:55.345Z,0
2016-08-16T02:01:55.351Z,0
2016-08-16T02:02:55.338Z,0
2016-08-16T02:03:55.327Z,0
2016-08-16T02:04:55.325Z,0
2016-08-16T02:05:55.317Z,0
2016-08-16T02:06:55.317Z,0
2016-08-16T02:07:55.314Z,0
2016-08-16T02:08:55.298Z,0
2016-08-16T02:09:55.309Z,0
2016-08-16T02:10:55.277Z,0
2016-08-16T02:11:55.993Z,0
2016-08-16T02:12:55.277Z,0
2016-08-16T02:13:55.264Z,0
2016-08-16T02:14:55.256Z,0
2016-08-16T02:16:12.285Z,0
2016-08-16T02:17:10.161Z,0
2016-08-16T02:18:11.113Z,0
2016-08-16T02:18:56.090Z,0
2016-08-16T02:19:55.884Z,0
2016-08-16T02:20:56.723Z,0
2016-08-16T02:21:55.226Z,0
2016-08-16T02:22:55.369Z,0
2016-08-16T02:23:55.208Z,0
2016-08-16T02:25:10.663Z,0
2016-08-16T02:25:55.839Z,0
2016-08-16T02:26:55.346Z,0
2016-08-16T02:28:10.096Z,0
2016-08-16T02:28:55.533Z,0
2016-08-16T02:29:56.669Z,0
2016-08-16T02:30:55.166Z,0
2016-08-16T02:31:55.157Z,0
2016-08-16T02:32:55.148Z,0
2016-08-16T02:33:55.157Z,0
2016-08-16T02:34:55.142Z,0
2016-08-16T02:35:55.135Z,0
2016-08-16T02:36:55.126Z,0
2016-08-16T02:37:55.139Z,0
2016-08-16T02:38:55.125Z,0
2016-08-16T02:39:55.349Z,0
2016-08-16T02:40:55.111Z,0
2016-08-16T02:41:57.307Z,0
2016-08-16T02:42:55.116Z,0
2016-08-16T02:43:55.093Z,0
2016-08-16T02:44:55.087Z,0
2016-08-16T02:45:55.074Z,0
2016-08-16T02:46:55.069Z,0
2016-08-16T02:47:55.065Z,0
2016-08-16T02:48:55.047Z,0
2016-08-16T02:49:55.056Z,0
2016-08-16T02:50:55.047Z,0
2016-08-16T02:51:55.033Z,0
2016-08-16T02:52:55.027Z,0
2016-08-16T02:53:55.021Z,0
2016-08-16T02:54:57.503Z,0
2016-08-16T02:55:57.681Z,0
2016-08-16T02:56:58.154Z,0
2016-08-16T02:57:58.519Z,0
2016-08-16T02:58:55.902Z,0
2016-08-16T02:59:54.983Z,0
2016-08-16T03:00:54.986Z,0
2016-08-16T03:01:54.982Z,0
2016-08-16T03:02:54.970Z,0
2016-08-16T03:03:56.484Z,0
2016-08-16T03:04:57.901Z,0
2016-08-16T03:05:56.807Z,0
2016-08-16T03:06:57.649Z,0
2016-08-16T03:07:54.972Z,0
2016-08-16T03:08:56.363Z,0
2016-08-16T03:09:55.148Z,0
2016-08-16T03:10:55.200Z,0
2016-08-16T03:11:54.926Z,0
2016-08-16T03:12:54.914Z,0
2016-08-16T03:13:54.910Z,0
2016-08-16T03:14:54.894Z,0
2016-08-16T03:15:54.899Z,0
2016-08-16T03:16:54.884Z,0
2016-08-16T03:17:54.944Z,0
2016-08-16T03:18:54.876Z,0
2016-08-16T03:19:54.865Z,0
2016-08-16T03:20:54.869Z,0
2016-08-16T03:21:54.870Z,0
2016-08-16T03:22:55.954Z,0
2016-08-16T03:23:54.857Z,0
2016-08-16T03:24:54.839Z,0
2016-08-16T03:25:54.838Z,0
2016-08-16T03:26:54.821Z,0
2016-08-16T03:27:54.829Z,0
2016-08-16T03:28:54.821Z,0
2016-08-16T03:29:54.802Z,0
2016-08-16T03:30:55.003Z,0
2016-08-16T03:31:54.797Z,0
2016-08-16T03:32:54.790Z,0
2016-08-16T03:33:56.884Z,0
2016-08-16T03:34:55.179Z,0
2016-08-16T03:37:24.847Z,5
2016-08-16T03:37:55.115Z,5
2016-08-16T03:38:55.906Z,5
2016-08-16T03:39:56.263Z,5
2016-08-16T03:40:54.740Z,5
2016-08-16T03:41:54.738Z,5
2016-08-16T03:43:10.944Z,5
2016-08-16T03:43:56.884Z,5
2016-08-16T03:44:55.524Z,5
2016-08-16T03:45:55.426Z,5
2016-08-16T03:46:55.146Z,5
2016-08-16T03:47:54.702Z,5
2016-08-16T03:48:54.744Z,5
2016-08-16T03:49:55.785Z,10
2016-08-16T03:50:54.685Z,10
2016-08-16T03:51:54.674Z,10
2016-08-16T03:52:54.670Z,10
2016-08-16T03:53:54.675Z,15
2016-08-16T03:54:54.659Z,15
2016-08-16T03:55:54.652Z,20
2016-08-16T03:56:54.651Z,20
2016-08-16T03:57:54.647Z,20
2016-08-16T03:58:55.359Z,25
2016-08-16T03:59:54.623Z,30
2016-08-16T04:00:54.622Z,30
2016-08-16T04:01:56.426Z,35
2016-08-16T04:02:54.610Z,35
2016-08-16T04:03:54.598Z,30
2016-08-16T04:04:54.605Z,30
2016-08-16T04:05:54.600Z,35
2016-08-16T04:06:54.588Z,35
2016-08-16T04:07:54.592Z,35
2016-08-16T04:08:54.582Z,35
2016-08-16T04:09:54.574Z,40
2016-08-16T04:10:54.568Z,40
2016-08-16T04:11:54.561Z,45
2016-08-16T04:12:55.848Z,45
2016-08-16T04:14:12.512Z,50
2016-08-16T04:14:57.731Z,50
2016-08-16T04:15:55.556Z,55
2016-08-16T04:16:56.405Z,60
2016-08-16T04:17:56.054Z,65
2016-08-16T04:18:54.534Z,70
2016-08-16T04:19:55.033Z,75
2016-08-16T04:20:54.693Z,75
2016-08-16T04:21:54.511Z,85
2016-08-16T04:23:56.281Z,100
2016-08-16T04:24:57.856Z,110
2016-08-16T04:25:55.753Z,115
2016-08-16T04:26:55.617Z,130
2016-08-16T04:27:54.484Z,140
2016-08-16T04:28:55.327Z,145
2016-08-16T04:29:54.480Z,155
2016-08-16T04:30:54.474Z,160
2016-08-16T04:31:54.453Z,165
2016-08-16T04:32:54.450Z,170
2016-08-16T04:33:54.442Z,170
2016-08-16T04:34:54.436Z,170
2016-08-16T04:35:54.434Z,160
2016-08-16T04:36:54.444Z,145
2016-08-16T04:37:54.439Z,140
2016-08-16T04:38:54.429Z,130
2016-08-16T04:39:54.423Z,125
2016-08-16T04:40:54.413Z,125
2016-08-16T04:41:55.122Z,120
2016-08-16T04:42:54.404Z,145
2016-08-16T04:43:54.416Z,125
2016-08-16T04:44:54.405Z,150
2016-08-16T04:45:54.405Z,150
2016-08-16T04:46:54.389Z,175
2016-08-16T04:47:54.389Z,190
2016-08-16T04:48:54.411Z,170
2016-08-16T04:49:54.381Z,160
2016-08-16T04:50:54.368Z,160
2016-08-16T04:53:09.751Z,185
2016-08-16T04:54:09.786Z,250
2016-08-16T04:54:55.714Z,285
2016-08-16T04:56:09.442Z,280
2016-08-16T04:56:55.328Z,285
2016-08-16T04:57:54.364Z,220
2016-08-16T04:58:54.369Z,245
2016-08-16T04:59:54.357Z,285
2016-08-16T05:00:54.356Z,285
2016-08-16T05:02:09.822Z,325
2016-08-16T05:02:54.597Z,330
2016-08-16T05:03:55.597Z,350
2016-08-16T05:04:55.299Z,360
2016-08-16T05:05:55.098Z,360
2016-08-16T05:06:54.615Z,375
2016-08-16T05:07:55.192Z,385
2016-08-16T05:08:54.332Z,400
2016-08-16T05:09:54.347Z,405
2016-08-16T05:10:54.350Z,415
2016-08-16T05:11:54.343Z,420
2016-08-16T05:12:54.349Z,415
2016-08-16T05:13:54.337Z,430
2016-08-16T05:14:55.040Z,430
2016-08-16T05:15:54.343Z,440
2016-08-16T05:16:54.350Z,455
2016-08-16T05:17:54.487Z,470
2016-08-16T05:18:54.342Z,485
2016-08-16T05:19:54.333Z,495
2016-08-16T05:20:54.347Z,530
2016-08-16T05:21:54.362Z,565
2016-08-16T05:22:55.107Z,590
2016-08-16T05:23:54.353Z,610
2016-08-16T05:24:54.361Z,630
2016-08-16T05:25:54.360Z,645
2016-08-16T05:26:54.366Z,510
2016-08-16T05:27:54.392Z,410
2016-08-16T05:28:54.381Z,425
2016-08-16T05:29:54.377Z,385
2016-08-16T05:30:54.383Z,370
2016-08-16T05:33:55.930Z,255
2016-08-16T05:34:57.470Z,235
2016-08-16T05:35:54.812Z,230
2016-08-16T05:36:54.489Z,230
2016-08-16T05:37:54.425Z,235
2016-08-16T05:38:54.431Z,250
2016-08-16T05:39:54.438Z,265
2016-08-16T05:40:57.533Z,290
2016-08-16T05:41:56.644Z,320
2016-08-16T05:42:55.542Z,360
2016-08-16T05:43:57.374Z,405
2016-08-16T05:44:54.907Z,420
2016-08-16T05:45:54.892Z,475
2016-08-16T05:46:54.455Z,455
2016-08-16T05:47:54.458Z,515
2016-08-16T05:48:55.239Z,645
2016-08-16T05:49:54.480Z,570
2016-08-16T05:50:54.498Z,810
2016-08-16T05:51:54.489Z,820
2016-08-16T05:52:54.491Z,600
2016-08-16T05:53:54.515Z,755
2016-08-16T05:54:54.497Z,565
2016-08-16T05:55:54.501Z,875
2016-08-16T05:56:54.520Z,475
2016-08-16T05:57:54.509Z,465
2016-08-16T05:58:54.526Z,620
2016-08-16T05:59:54.533Z,500
2016-08-16T06:00:54.528Z,505
2016-08-16T06:01:54.526Z,760
2016-08-16T06:02:54.537Z,530
2016-08-16T06:03:54.544Z,515
2016-08-16T06:04:54.585Z,655
2016-08-16T06:05:54.565Z,510
2016-08-16T06:06:54.571Z,645
2016-08-16T06:07:54.564Z,525
2016-08-16T06:08:54.569Z,515
2016-08-16T06:09:54.567Z,535
2016-08-16T06:11:10.901Z,555
2016-08-16T06:11:57.689Z,515
2016-08-16T06:12:57.318Z,505
2016-08-16T06:13:54.694Z,555
2016-08-16T06:14:54.752Z,590
2016-08-16T06:15:54.609Z,620
2016-08-16T06:16:54.961Z,585
2016-08-16T06:17:54.630Z,585
2016-08-16T06:18:55.355Z,595
2016-08-16T06:19:55.630Z,615
2016-08-16T06:21:10.361Z,625
2016-08-16T06:21:55.558Z,625
2016-08-16T06:22:54.806Z,605
2016-08-16T06:23:55.200Z,620
2016-08-16T06:24:54.908Z,650
2016-08-16T06:25:54.682Z,605
2016-08-16T06:26:54.679Z,690
2016-08-16T06:27:54.681Z,615
2016-08-16T06:28:54.682Z,545
2016-08-16T06:29:54.680Z,515
2016-08-16T06:30:54.699Z,565
2016-08-16T06:31:54.700Z,600
2016-08-16T06:32:54.702Z,970
2016-08-16T06:33:54.705Z,565
2016-08-16T06:34:54.710Z,625
2016-08-16T06:35:54.721Z,590
2016-08-16T06:36:54.727Z,580
2016-08-16T06:37:54.729Z,445
2016-08-16T06:38:54.730Z,400
2016-08-16T06:39:54.736Z,430
2016-08-16T06:40:54.754Z,485
2016-08-16T06:41:54.750Z,530
2016-08-16T06:42:54.753Z,600
2016-08-16T06:43:54.753Z,585
2016-08-16T06:44:54.759Z,730
2016-08-16T06:45:54.767Z,725
2016-08-16T06:46:54.774Z,570
2016-08-16T06:47:55.478Z,445
2016-08-16T06:48:54.781Z,445
2016-08-16T06:49:56.750Z,485
2016-08-16T06:50:57.584Z,570
2016-08-16T06:51:56.735Z,615
2016-08-16T06:52:55.834Z,585
2016-08-16T06:53:54.800Z,490
2016-08-16T06:54:54.806Z,425
2016-08-16T06:55:54.821Z,430
2016-08-16T06:56:54.874Z,425
2016-08-16T06:57:54.826Z,420
2016-08-16T06:58:57.307Z,435
2016-08-16T07:00:56.194Z,440
2016-08-16T07:01:55.784Z,450
2016-08-16T07:02:54.897Z,480
2016-08-16T07:03:54.934Z,1165
2016-08-16T07:04:54.871Z,600
2016-08-16T07:05:54.858Z,670
2016-08-16T07:06:54.862Z,615
2016-08-16T07:07:54.869Z,620
2016-08-16T07:08:54.871Z,570
2016-08-16T07:09:54.878Z,585
2016-08-16T07:10:54.877Z,650
2016-08-16T07:11:54.886Z,605
2016-08-16T07:12:54.894Z,725
2016-08-16T07:13:54.892Z,690
2016-08-16T07:14:54.912Z,740
2016-08-16T07:15:54.904Z,685
2016-08-16T07:16:54.914Z,750
2016-08-16T07:17:56.965Z,870
2016-08-16T07:18:54.919Z,1715
2016-08-16T07:19:54.919Z,830
2016-08-16T07:20:54.918Z,1310
2016-08-16T07:21:54.935Z,1065
2016-08-16T07:22:54.954Z,765
2016-08-16T07:23:54.936Z,805
2016-08-16T07:24:54.941Z,750
2016-08-16T07:25:54.958Z,1805
2016-08-16T07:26:54.958Z,805
2016-08-16T07:27:54.976Z,580
2016-08-16T07:28:56.824Z,1415
2016-08-16T07:29:56.325Z,1525
2016-08-16T07:31:24.830Z,1590
2016-08-16T07:32:10.369Z,1600
2016-08-16T07:32:54.999Z,1605
2016-08-16T07:33:55.707Z,1620
2016-08-16T07:34:55.012Z,1650
2016-08-16T07:35:55.026Z,1685
2016-08-16T07:36:55.044Z,1655
2016-08-16T07:38:55.796Z,1820
2016-08-16T07:40:25.154Z,1830
2016-08-16T07:40:56.520Z,1880
2016-08-16T07:41:55.238Z,1955
2016-08-16T07:42:55.591Z,1955
2016-08-16T07:43:55.292Z,1950
2016-08-16T07:44:55.818Z,1870
2016-08-16T07:45:55.127Z,1880
2016-08-16T07:46:55.130Z,1845
2016-08-16T07:47:55.149Z,1840
2016-08-16T07:48:55.142Z,2030
2016-08-16T07:49:55.161Z,2430
2016-08-16T07:50:55.182Z,2610
2016-08-16T07:51:55.192Z,2620
2016-08-16T07:52:55.195Z,2630
2016-08-16T07:53:55.215Z,2635
2016-08-16T07:54:55.223Z,2635
2016-08-16T07:55:55.234Z,2635
2016-08-16T07:56:55.259Z,2605
2016-08-16T07:57:55.266Z,2645
2016-08-16T07:58:55.261Z,2645
2016-08-16T07:59:55.286Z,2600
2016-08-16T08:00:55.301Z,2625
2016-08-16T08:01:56.020Z,2670
2016-08-16T08:02:55.326Z,2805
2016-08-16T08:03:55.346Z,2910
2016-08-16T08:04:55.363Z,2680
2016-08-16T08:05:55.371Z,2860
2016-08-16T08:06:56.105Z,670
2016-08-16T08:07:58.028Z,610
2016-08-16T08:08:57.625Z,590
2016-08-16T08:09:57.533Z,640
2016-08-16T08:10:57.323Z,670
2016-08-16T08:11:56.658Z,805
2016-08-16T08:12:55.473Z,1925
2016-08-16T08:13:55.490Z,1190
2016-08-16T08:14:55.490Z,705
2016-08-16T08:15:55.502Z,615
2016-08-16T08:16:57.750Z,580
2016-08-16T08:17:58.467Z,575
2016-08-16T08:18:56.970Z,695
2016-08-16T08:19:57.195Z,565
2016-08-16T08:20:56.915Z,665
2016-08-16T08:21:55.583Z,1215
2016-08-16T08:22:55.608Z,600
2016-08-16T08:23:55.597Z,1915
2016-08-16T08:24:55.606Z,1800
2016-08-16T08:25:55.633Z,1685
2016-08-16T08:26:55.627Z,1730
2016-08-16T08:27:55.655Z,1250
2016-08-16T08:28:55.645Z,1810
2016-08-16T08:29:55.665Z,1800
2016-08-16T08:30:55.656Z,2125
2016-08-16T08:31:55.676Z,2050
2016-08-16T08:32:55.693Z,1275
2016-08-16T08:33:55.697Z,1065
2016-08-16T08:34:55.705Z,580
2016-08-16T08:35:55.714Z,590
2016-08-16T08:36:55.723Z,1570
2016-08-16T08:37:55.736Z,940
2016-08-16T08:38:55.751Z,745
2016-08-16T08:39:55.766Z,685
2016-08-16T08:40:56.482Z,675
2016-08-16T08:41:55.778Z,685
2016-08-16T08:42:55.787Z,750
2016-08-16T08:43:55.803Z,830
2016-08-16T08:44:55.809Z,790
2016-08-16T08:45:55.832Z,745
2016-08-16T08:47:11.297Z,655
2016-08-16T08:47:56.082Z,650
2016-08-16T08:48:56.797Z,760
2016-08-16T08:49:56.100Z,770
2016-08-16T08:50:57.069Z,785
2016-08-16T08:51:55.858Z,765
2016-08-16T08:52:55.876Z,720
2016-08-16T08:53:55.877Z,675
2016-08-16T08:54:55.891Z,670
2016-08-16T08:56:11.913Z,690
2016-08-16T08:56:56.654Z,695
2016-08-16T08:57:56.913Z,695
2016-08-16T09:00:11.707Z,735
2016-08-16T09:00:56.597Z,760
2016-08-16T09:01:56.546Z,770
2016-08-16T09:02:55.950Z,780
2016-08-16T09:03:55.963Z,775
2016-08-16T09:04:55.960Z,740
2016-08-16T09:05:55.970Z,765
2016-08-16T09:06:56.003Z,800
2016-08-16T09:07:55.984Z,830
2016-08-16T09:08:55.991Z,835
2016-08-16T09:09:55.998Z,855
2016-08-16T09:10:56.033Z,855
2016-08-16T09:11:56.014Z,830
2016-08-16T09:12:56.894Z,790
2016-08-16T09:13:56.038Z,760
2016-08-16T09:14:56.041Z,750
2016-08-16T09:15:56.047Z,750
2016-08-16T09:16:56.054Z,750
2016-08-16T09:17:56.161Z,725
2016-08-16T09:18:56.766Z,705
2016-08-16T09:19:56.070Z,695
2016-08-16T09:20:56.076Z,685
2016-08-16T09:21:56.089Z,685
2016-08-16T09:22:56.099Z,675
2016-08-16T09:23:56.102Z,655
2016-08-16T09:24:56.116Z,605
2016-08-16T09:25:58.650Z,550
2016-08-16T09:26:57.865Z,510
2016-08-16T09:27:58.517Z,490
2016-08-16T09:28:56.807Z,480
2016-08-16T09:29:58.967Z,475
2016-08-16T09:30:57.678Z,465
2016-08-16T09:31:56.147Z,445
2016-08-16T09:32:56.150Z,430
2016-08-16T09:33:56.159Z,415
2016-08-16T09:35:58.588Z,455
2016-08-16T09:36:57.837Z,490
2016-08-16T09:37:58.697Z,520
2016-08-16T09:38:59.080Z,540
2016-08-16T09:39:58.153Z,565
2016-08-16T09:40:56.413Z,585
2016-08-16T09:41:56.626Z,600
2016-08-16T09:42:56.220Z,625
2016-08-16T09:43:56.209Z,660
2016-08-16T09:44:56.211Z,670
2016-08-16T09:45:56.219Z,655
2016-08-16T09:46:56.219Z,635
2016-08-16T09:47:56.413Z,615
2016-08-16T09:48:56.238Z,590
2016-08-16T09:49:56.234Z,550
2016-08-16T09:50:56.243Z,485
2016-08-16T09:51:56.243Z,445
2016-08-16T09:52:56.250Z,425
2016-08-16T09:53:56.263Z,425
2016-08-16T09:54:56.274Z,440
2016-08-16T09:55:56.264Z,460
2016-08-16T09:56:56.279Z,480
2016-08-16T09:57:56.271Z,495
2016-08-16T09:58:56.287Z,510
2016-08-16T09:59:56.979Z,535
2016-08-16T10:00:57.687Z,565
2016-08-16T10:01:56.284Z,575
2016-08-16T10:02:56.499Z,565
2016-08-16T10:03:56.308Z,550
2016-08-16T10:05:12.273Z,535
2016-08-16T10:05:57.121Z,530
2016-08-16T10:08:11.237Z,545
2016-08-16T10:08:57.264Z,540
2016-08-16T10:09:56.326Z,530
2016-08-16T10:10:56.474Z,520
2016-08-16T10:11:56.426Z,480
2016-08-16T10:12:56.338Z,460
2016-08-16T10:14:11.909Z,455
2016-08-16T10:15:11.566Z,470
2016-08-16T10:17:11.474Z,520
2016-08-16T10:17:58.857Z,570
2016-08-16T10:18:57.013Z,625
2016-08-16T10:19:56.359Z,660
2016-08-16T10:20:56.361Z,665
2016-08-16T10:21:57.071Z,665
2016-08-16T10:22:56.370Z,645
2016-08-16T10:23:56.386Z,620
2016-08-16T10:24:56.370Z,530
2016-08-16T10:25:56.396Z,480
2016-08-16T10:26:56.382Z,410
2016-08-16T10:27:56.386Z,385
2016-08-16T10:28:56.397Z,375
2016-08-16T10:29:56.407Z,390
2016-08-16T10:30:56.397Z,410
2016-08-16T10:31:56.411Z,430
2016-08-16T10:32:56.399Z,470
2016-08-16T10:33:56.412Z,515
2016-08-16T10:34:56.425Z,540
2016-08-16T10:35:56.433Z,535
2016-08-16T10:36:56.431Z,535
2016-08-16T10:37:56.438Z,545
2016-08-16T10:38:56.432Z,515
2016-08-16T10:39:56.435Z,470
2016-08-16T10:40:56.441Z,430
2016-08-16T10:41:56.447Z,410
2016-08-16T10:42:56.458Z,365
2016-08-16T10:43:56.463Z,335
2016-08-16T10:44:59.503Z,320
2016-08-16T10:45:59.285Z,325
2016-08-16T10:46:58.375Z,340
2016-08-16T10:47:58.130Z,360
2016-08-16T10:48:57.653Z,390
2016-08-16T10:49:56.654Z,410
2016-08-16T10:50:56.916Z,450
2016-08-16T10:51:56.677Z,500
2016-08-16T10:52:56.488Z,535
2016-08-16T10:53:58.522Z,560
2016-08-16T10:54:58.806Z,565
2016-08-16T10:55:58.360Z,550
2016-08-16T10:56:58.473Z,525
2016-08-16T10:57:56.505Z,490
2016-08-16T10:58:57.604Z,450
2016-08-16T10:59:56.511Z,425
2016-08-16T11:00:56.513Z,415
2016-08-16T11:01:56.530Z,425
2016-08-16T11:02:56.527Z,425
2016-08-16T11:03:56.525Z,450
2016-08-16T11:04:56.533Z,480
2016-08-16T11:05:56.568Z,485
2016-08-16T11:06:56.549Z,480
2016-08-16T11:07:56.559Z,480
2016-08-16T11:08:56.551Z,475
2016-08-16T11:09:56.564Z,460
2016-08-16T11:10:56.560Z,435
2016-08-16T11:11:56.560Z,410
2016-08-16T11:12:56.565Z,400
2016-08-16T11:13:56.578Z,390
2016-08-16T11:14:56.573Z,385
2016-08-16T11:15:56.573Z,395
2016-08-16T11:17:10.008Z,405
2016-08-16T11:17:56.644Z,415
2016-08-16T11:19:11.509Z,420
2016-08-16T11:20:10.024Z,425
2016-08-16T11:20:56.599Z,430
2016-08-16T11:21:56.607Z,435
2016-08-16T11:23:12.236Z,395
2016-08-16T11:26:00.663Z,340
2016-08-16T11:26:57.622Z,325
2016-08-16T11:27:56.868Z,325
2016-08-16T11:28:57.181Z,320
2016-08-16T11:29:56.639Z,325
2016-08-16T11:30:56.625Z,340
2016-08-16T11:31:56.634Z,360
2016-08-16T11:33:12.358Z,385
2016-08-16T11:34:26.573Z,400
2016-08-16T11:34:57.393Z,395
2016-08-16T11:35:57.144Z,395
2016-08-16T11:37:56.769Z,410
2016-08-16T11:38:56.675Z,405
2016-08-16T11:39:56.660Z,405
2016-08-16T11:40:56.662Z,430
2016-08-16T11:41:56.663Z,445
2016-08-16T11:42:56.670Z,455
2016-08-16T11:43:56.669Z,455
2016-08-16T11:44:57.375Z,460
2016-08-16T11:45:56.690Z,435
2016-08-16T11:46:56.699Z,415
2016-08-16T11:47:56.690Z,405
2016-08-16T11:48:56.703Z,400
2016-08-16T11:49:57.389Z,395
2016-08-16T11:50:56.702Z,375
2016-08-16T11:52:10.131Z,340
2016-08-16T11:52:56.703Z,320
2016-08-16T11:54:03.659Z,310
2016-08-16T11:54:56.725Z,315
2016-08-16T11:55:56.747Z,320
2016-08-16T11:56:56.734Z,330
2016-08-16T11:57:58.250Z,335
2016-08-16T11:59:02.996Z,330
2016-08-16T11:59:56.729Z,320
2016-08-16T12:00:56.731Z,320
2016-08-16T12:01:56.740Z,345
2016-08-16T12:02:59.624Z,365
2016-08-16T12:04:11.719Z,395
2016-08-16T12:04:59.927Z,415
2016-08-16T12:05:58.150Z,440
2016-08-16T12:06:58.255Z,460
2016-08-16T12:07:57.358Z,485
2016-08-16T12:08:56.759Z,515
2016-08-16T12:09:56.760Z,535
2016-08-16T12:10:56.760Z,565
2016-08-16T12:11:58.982Z,630
2016-08-16T12:12:59.356Z,695
2016-08-16T12:13:59.671Z,745
2016-08-16T12:15:18.198Z,745
2016-08-16T12:15:58.561Z,735
2016-08-16T12:17:10.157Z,715
2016-08-16T12:18:11.759Z,685
2016-08-16T12:18:56.817Z,655
2016-08-16T12:19:56.798Z,630
2016-08-16T12:20:56.813Z,615
2016-08-16T12:21:56.806Z,605
2016-08-16T12:22:56.813Z,585
2016-08-16T12:23:56.841Z,550
2016-08-16T12:24:56.829Z,505
2016-08-16T12:25:56.828Z,450
2016-08-16T12:26:56.837Z,410
2016-08-16T12:27:56.831Z,385
2016-08-16T12:28:56.837Z,370
2016-08-16T12:30:10.283Z,360
2016-08-16T12:30:56.859Z,365
2016-08-16T12:32:03.829Z,375
2016-08-16T12:32:56.865Z,395
2016-08-16T12:33:56.881Z,425
2016-08-16T12:34:56.870Z,455
2016-08-16T12:35:56.885Z,480
2016-08-16T12:36:56.872Z,505
2016-08-16T12:37:57.587Z,515
2016-08-16T12:38:56.901Z,530
2016-08-16T12:39:56.897Z,550
2016-08-16T12:40:56.904Z,565
2016-08-16T12:41:57.108Z,565
2016-08-16T12:42:58.105Z,575
2016-08-16T12:45:57.484Z,620
2016-08-16T12:46:57.489Z,625
2016-08-16T12:48:00.436Z,610
2016-08-16T12:49:09.680Z,610
2016-08-16T12:49:56.949Z,595
2016-08-16T12:50:59.919Z,570
2016-08-16T12:52:12.235Z,560
2016-08-16T12:53:15.113Z,560
2016-08-16T12:53:57.023Z,575
2016-08-16T12:55:12.584Z,615
2016-08-16T12:55:56.981Z,635
2016-08-16T12:56:57.542Z,690
2016-08-16T12:57:56.996Z,730
2016-08-16T12:58:57.010Z,760
2016-08-16T13:00:10.433Z,780
2016-08-16T13:00:56.997Z,800
2016-08-16T13:01:57.713Z,815
2016-08-16T13:02:57.019Z,810
2016-08-16T13:03:57.021Z,800
2016-08-16T13:04:57.026Z,795
2016-08-16T13:06:00.882Z,780
2016-08-16T13:06:57.042Z,760
2016-08-16T13:07:57.076Z,730
2016-08-16T13:08:57.052Z,685
2016-08-16T13:09:57.060Z,635
2016-08-16T13:10:57.063Z,580
2016-08-16T13:11:57.084Z,540
2016-08-16T13:12:57.073Z,505
2016-08-16T13:13:57.079Z,480
2016-08-16T13:14:57.084Z,445
2016-08-16T13:15:57.106Z,415
2016-08-16T13:16:57.096Z,385
2016-08-16T13:17:57.114Z,360
2016-08-16T13:18:57.324Z,330
2016-08-16T13:19:57.116Z,310
2016-08-16T13:20:59.241Z,300
2016-08-16T13:21:58.653Z,300
2016-08-16T13:23:01.095Z,300
2016-08-16T13:24:00.178Z,300
2016-08-16T13:24:57.865Z,305
2016-08-16T13:25:58.109Z,310
2016-08-16T13:26:57.313Z,305
2016-08-16T13:27:57.163Z,300
2016-08-16T13:29:10.599Z,300
2016-08-16T13:29:59.913Z,300
2016-08-16T13:30:59.629Z,300
2016-08-16T13:32:00.813Z,305
2016-08-16T13:33:00.234Z,310
2016-08-16T13:33:58.121Z,310
2016-08-16T13:34:58.761Z,300
2016-08-16T13:35:58.281Z,290
2016-08-16T13:36:57.210Z,280
2016-08-16T13:37:57.221Z,270
2016-08-16T13:38:57.220Z,270
2016-08-16T13:39:57.225Z,270
2016-08-16T13:41:10.659Z,285
2016-08-16T13:41:57.251Z,290
2016-08-16T13:42:57.247Z,300
2016-08-16T13:43:57.238Z,310
2016-08-16T13:44:57.241Z,325
2016-08-16T13:45:57.248Z,340
2016-08-16T13:46:57.243Z,350
2016-08-16T13:47:57.254Z,365
2016-08-16T13:48:57.275Z,375
2016-08-16T13:49:57.264Z,380
2016-08-16T13:50:57.274Z,380
2016-08-16T13:51:57.285Z,375
2016-08-16T13:52:57.280Z,370
2016-08-16T13:53:57.273Z,355
2016-08-16T13:54:57.284Z,340
2016-08-16T13:55:57.279Z,325
2016-08-16T13:56:57.322Z,310
2016-08-16T13:57:57.300Z,300
2016-08-16T13:58:57.298Z,285
2016-08-16T13:59:58.595Z,270
2016-08-16T14:00:58.712Z,265
2016-08-16T14:02:12.535Z,250
2016-08-16T14:03:12.843Z,240
2016-08-16T14:03:57.368Z,235
2016-08-16T14:04:57.331Z,225
2016-08-16T14:05:57.338Z,220
2016-08-16T14:06:57.333Z,225
2016-08-16T14:07:57.337Z,235
2016-08-16T14:08:57.841Z,255
2016-08-16T14:11:00.429Z,300
2016-08-16T14:12:05.836Z,330
2016-08-16T14:12:58.265Z,350
2016-08-16T14:13:58.306Z,370
2016-08-16T14:14:58.057Z,390
2016-08-16T14:15:57.380Z,400
2016-08-16T14:16:58.055Z,380
2016-08-16T14:17:57.366Z,370
2016-08-16T14:18:57.363Z,360
2016-08-16T14:19:57.367Z,335
2016-08-16T14:20:57.371Z,345
2016-08-16T14:21:57.381Z,385
2016-08-16T14:22:57.385Z,420